Time;durP1;ratioP1;P1;durP2;ratioP2;P2;SDS_P1;SDS_P2;PMS_P1;PMS_P2;Temp;Humidity;BMP_temperature;BMP_pressure;BME280_temperature;BME280_humidity;BME280_pressure;Samples;Min_cycle;Max_cycle;Signal;HPM_P1;HPM_P2
2021/11/03 00:00:08;;;;;;;11.50;1.00;;;;;;;;;;5075462;28;20020;-67
2021/11/03 00:02:34;;;;;;;3.88;0.90;;;;;;;;;;5075290;28;20090;-67
2021/11/03 00:05:01;;;;;;;1.10;0.80;;;;;;;;;;5075170;28;20028;-66
2021/11/03 00:07:29;;;;;;;2.78;1.10;;;;;;;;;;5075098;28;20024;-66
2021/11/03 00:09:56;;;;;;;6.35;1.00;;;;;;;;;;5074778;28;20068;-66
2021/11/03 00:12:22;;;;;;;2.85;0.90;;;;;;;;;;5075205;28;20032;-66
2021/11/03 00:14:48;;;;;;;2.13;1.02;;;;;;;;;;5073571;28;20017;-66
2021/11/03 00:17:14;;;;;;;1.33;1.23;;;;;;;;;;5075007;28;20037;-66
2021/11/03 00:19:40;;;;;;;2.83;1.17;;;;;;;;;;5075060;28;20033;-66
2021/11/03 00:22:06;;;;;;;1.70;1.05;;;;;;;;;;5074780;28;20028;-67
2021/11/03 00:24:34;;;;;;;11.18;1.38;;;;;;;;;;5074762;28;20368;-67
2021/11/03 00:27:01;;;;;;;6.03;1.10;;;;;;;;;;5075127;28;20059;-67
2021/11/03 00:29:27;;;;;;;9.35;1.20;;;;;;;;;;5074574;28;20045;-67
2021/11/03 00:31:53;;;;;;;4.88;1.08;;;;;;;;;;5074699;28;20074;-66
2021/11/03 00:34:19;;;;;;;1.27;1.13;;;;;;;;;;5074618;28;20082;-67
2021/11/03 00:36:45;;;;;;;3.42;1.20;;;;;;;;;;5074421;28;20422;-66
2021/11/03 00:39:11;;;;;;;5.90;1.38;;;;;;;;;;5074520;28;20029;-67
2021/11/03 00:41:37;;;;;;;6.55;1.00;;;;;;;;;;5073194;28;20074;-67
2021/11/03 00:44:03;;;;;;;5.18;1.40;;;;;;;;;;5074537;28;20063;-66
2021/11/03 00:46:29;;;;;;;4.13;0.95;;;;;;;;;;5074465;28;20035;-67
2021/11/03 00:48:55;;;;;;;7.95;1.48;;;;;;;;;;5074617;28;20012;-67
2021/11/03 00:51:21;;;;;;;10.73;1.27;;;;;;;;;;5073676;28;20028;-67
2021/11/03 00:53:47;;;;;;;7.68;1.27;;;;;;;;;;5074308;28;20710;-67
2021/11/03 00:56:13;;;;;;;9.05;1.55;;;;;;;;;;5074044;28;20024;-67
2021/11/03 00:58:39;;;;;;;6.50;1.95;;;;;;;;;;5074257;28;20060;-66
2021/11/03 01:01:05;;;;;;;6.30;1.38;;;;;;;;;;5072962;28;20032;-66
2021/11/03 01:03:31;;;;;;;9.43;1.20;;;;;;;;;;5073774;28;20033;-67
2021/11/03 01:05:57;;;;;;;1.50;1.10;;;;;;;;;;5072383;28;20119;-67
2021/11/03 01:08:23;;;;;;;4.03;1.20;;;;;;;;;;5073079;28;20034;-67
2021/11/03 01:10:51;;;;;;;6.10;1.17;;;;;;;;;;5073400;28;20041;-66
2021/11/03 01:13:18;;;;;;;8.82;1.30;;;;;;;;;;5073579;28;20029;-66
2021/11/03 01:15:44;;;;;;;7.40;1.25;;;;;;;;;;5073437;28;20051;-67
2021/11/03 01:18:10;;;;;;;1.85;1.25;;;;;;;;;;5073189;28;20029;-67
2021/11/03 01:20:36;;;;;;;1.65;1.08;;;;;;;;;;5073343;28;20086;-67
2021/11/03 01:23:03;;;;;;;3.97;1.10;;;;;;;;;;5073161;28;20021;-67
2021/11/03 01:25:29;;;;;;;1.27;1.02;;;;;;;;;;5073168;28;20111;-66
2021/11/03 01:27:55;;;;;;;4.60;1.10;;;;;;;;;;5073149;28;20082;-66
2021/11/03 01:30:21;;;;;;;4.07;1.30;;;;;;;;;;5073120;28;20044;-66
2021/11/03 01:32:48;;;;;;;7.28;1.20;;;;;;;;;;5073294;28;20052;-66
2021/11/03 01:35:15;;;;;;;2.10;1.30;;;;;;;;;;5073098;28;20059;-66
2021/11/03 01:37:41;;;;;;;3.33;1.42;;;;;;;;;;5073031;28;20032;-67
2021/11/03 01:40:08;;;;;;;8.90;1.35;;;;;;;;;;5055085;28;20029;-67
2021/11/03 01:42:35;;;;;;;4.72;1.42;;;;;;;;;;5072943;28;20051;-67
2021/11/03 01:45:01;;;;;;;9.82;1.50;;;;;;;;;;5072798;28;20341;-66
2021/11/03 01:47:38;;;;;;;5.28;1.52;;;;;;;;;;5072904;28;20020;-67
2021/11/03 01:50:05;;;;;;;9.68;1.80;;;;;;;;;;5073049;28;20040;-67
2021/11/03 01:52:31;;;;;;;4.68;1.63;;;;;;;;;;5072582;28;20032;-66
2021/11/03 01:54:57;;;;;;;7.05;1.38;;;;;;;;;;5072968;28;20052;-66
2021/11/03 01:57:33;;;;;;;4.03;1.25;;;;;;;;;;5073164;28;20131;-66
2021/11/03 02:00:03;;;;;;;6.50;1.52;;;;;;;;;;5072863;28;20051;-66
2021/11/03 02:02:29;;;;;;;3.92;1.45;;;;;;;;;;5071976;28;20024;-66
2021/11/03 02:04:56;;;;;;;8.93;1.58;;;;;;;;;;5072626;28;20032;-66
2021/11/03 02:07:25;;;;;;;3.30;1.45;;;;;;;;;;5072613;28;20024;-66
2021/11/03 02:09:51;;;;;;;3.22;1.70;;;;;;;;;;5072213;28;20090;-66
2021/11/03 02:12:28;;;;;;;2.80;1.48;;;;;;;;;;5072460;28;20039;-66
2021/11/03 02:14:54;;;;;;;9.73;2.15;;;;;;;;;;5072746;28;20013;-66
2021/11/03 02:17:21;;;;;;;3.10;1.85;;;;;;;;;;5072565;28;20039;-66
2021/11/03 02:19:47;;;;;;;2.70;1.60;;;;;;;;;;5072337;28;20028;-66
2021/11/03 02:22:25;;;;;;;4.50;1.77;;;;;;;;;;5072186;28;20021;-66
2021/11/03 02:25:03;;;;;;;3.15;1.55;;;;;;;;;;5072888;28;20032;-66
2021/11/03 02:27:32;;;;;;;1.80;1.30;;;;;;;;;;5072397;28;20029;-66
2021/11/03 02:29:58;;;;;;;3.10;1.45;;;;;;;;;;5070876;28;20028;-66
2021/11/03 02:32:27;;;;;;;5.90;1.73;;;;;;;;;;5072136;28;20161;-66
2021/11/03 02:34:53;;;;;;;2.17;1.38;;;;;;;;;;5072278;28;20031;-67
2021/11/03 02:37:28;;;;;;;1.58;1.40;;;;;;;;;;5072087;28;20538;-66
2021/11/03 02:39:56;;;;;;;1.73;1.50;;;;;;;;;;5072095;28;20067;-67
2021/11/03 02:42:23;;;;;;;2.05;1.48;;;;;;;;;;5070870;28;20048;-67
2021/11/03 02:44:49;;;;;;;1.92;1.50;;;;;;;;;;5072264;28;20104;-67
2021/11/03 02:47:15;;;;;;;2.33;1.60;;;;;;;;;;5072192;28;20020;-66
2021/11/03 02:49:42;;;;;;;4.13;1.80;;;;;;;;;;5071928;28;20036;-66
2021/11/03 02:52:19;;;;;;;3.88;1.83;;;;;;;;;;5072011;28;20110;-67
2021/11/03 02:54:45;;;;;;;5.65;1.52;;;;;;;;;;5071986;28;20100;-66
2021/11/03 02:57:11;;;;;;;2.35;1.55;;;;;;;;;;5071918;28;20476;-66
2021/11/03 02:59:37;;;;;;;1.73;1.45;;;;;;;;;;5071852;28;20044;-66
2021/11/03 03:02:04;;;;;;;3.78;1.50;;;;;;;;;;5072036;28;20021;-66
2021/11/03 03:04:35;;;;;;;2.22;1.60;;;;;;;;;;5070491;28;20029;-66
2021/11/03 03:07:01;;;;;;;5.50;1.45;;;;;;;;;;5071885;28;20025;-66
2021/11/03 03:09:27;;;;;;;5.43;1.92;;;;;;;;;;5071739;28;20052;-66
2021/11/03 03:11:55;;;;;;;4.07;1.70;;;;;;;;;;5071909;28;20032;-66
2021/11/03 03:14:22;;;;;;;2.42;1.67;;;;;;;;;;5073089;28;20480;-67
2021/11/03 03:16:48;;;;;;;4.22;1.60;;;;;;;;;;5055874;28;20036;-66
2021/11/03 03:19:15;;;;;;;4.13;1.83;;;;;;;;;;5055738;28;20028;-67
2021/11/03 03:21:41;;;;;;;3.75;1.52;;;;;;;;;;5055907;28;20028;-67
2021/11/03 03:24:08;;;;;;;3.00;1.40;;;;;;;;;;5054170;28;20029;-67
2021/11/03 03:26:34;;;;;;;5.05;1.60;;;;;;;;;;5054490;28;20025;-68
2021/11/03 03:29:01;;;;;;;2.70;1.25;;;;;;;;;;5055486;28;20106;-67
2021/11/03 03:31:27;;;;;;;6.20;1.63;;;;;;;;;;5055521;28;20040;-66
2021/11/03 03:33:55;;;;;;;1.98;1.50;;;;;;;;;;5055283;28;20079;-66
2021/11/03 03:36:22;;;;;;;1.60;1.50;;;;;;;;;;5055390;28;20033;-66
2021/11/03 03:38:48;;;;;;;4.95;1.77;;;;;;;;;;5055304;28;20032;-67
2021/11/03 03:41:15;;;;;;;2.47;1.50;;;;;;;;;;5055414;28;20079;-67
2021/11/03 03:43:41;;;;;;;1.77;1.60;;;;;;;;;;5055251;28;20496;-67
2021/11/03 03:46:08;;;;;;;2.63;1.70;;;;;;;;;;5055363;28;20043;-66
2021/11/03 03:48:34;;;;;;;7.13;1.50;;;;;;;;;;5059444;28;20025;-66
2021/11/03 03:51:00;;;;;;;2.28;1.75;;;;;;;;;;5075043;28;20051;-66
2021/11/03 03:53:26;;;;;;;2.65;1.60;;;;;;;;;;5075096;28;20029;-66
2021/11/03 03:55:52;;;;;;;4.85;1.65;;;;;;;;;;5074942;28;20027;-66
2021/11/03 03:58:20;;;;;;;2.13;1.42;;;;;;;;;;5074743;28;20032;-66
2021/11/03 04:00:47;;;;;;;1.92;1.20;;;;;;;;;;5075075;28;20024;-66
2021/11/03 04:03:13;;;;;;;5.32;1.90;;;;;;;;;;5073717;28;20013;-65
2021/11/03 04:05:39;;;;;;;4.07;1.55;;;;;;;;;;5074944;28;20028;-66
2021/11/03 04:08:05;;;;;;;4.05;1.83;;;;;;;;;;5074778;28;20021;-65
2021/11/03 04:10:31;;;;;;;2.83;1.70;;;;;;;;;;5074629;28;20074;-65
2021/11/03 04:12:57;;;;;;;2.03;1.40;;;;;;;;;;5074603;28;20036;-65
2021/11/03 04:15:23;;;;;;;1.98;1.75;;;;;;;;;;5073364;28;20066;-66
2021/11/03 04:17:49;;;;;;;2.53;1.60;;;;;;;;;;5074757;28;20581;-66
2021/11/03 04:20:16;;;;;;;3.20;1.42;;;;;;;;;;5074498;28;20025;-65
2021/11/03 04:22:43;;;;;;;3.92;1.45;;;;;;;;;;5074386;28;20033;-65
2021/11/03 04:25:09;;;;;;;2.17;1.55;;;;;;;;;;5074002;28;20391;-65
2021/11/03 04:27:35;;;;;;;5.78;1.10;;;;;;;;;;5073626;28;20024;-65
2021/11/03 04:30:02;;;;;;;3.92;1.35;;;;;;;;;;5074561;28;20120;-65
2021/11/03 04:32:28;;;;;;;1.70;1.20;;;;;;;;;;5074095;28;20495;-65
2021/11/03 04:34:54;;;;;;;2.28;1.42;;;;;;;;;;5074415;28;20063;-65
2021/11/03 04:37:20;;;;;;;4.00;1.40;;;;;;;;;;5074435;28;20062;-65
2021/11/03 04:39:46;;;;;;;3.17;1.30;;;;;;;;;;5074242;28;20402;-65
2021/11/03 04:42:13;;;;;;;2.15;1.50;;;;;;;;;;5074093;28;20056;-65
2021/11/03 04:44:39;;;;;;;2.75;1.40;;;;;;;;;;5074209;28;20026;-65
2021/11/03 04:47:05;;;;;;;3.17;1.48;;;;;;;;;;5074298;28;20029;-65
2021/11/03 04:49:31;;;;;;;3.28;1.15;;;;;;;;;;5073762;28;20450;-65
2021/11/03 04:51:58;;;;;;;2.83;1.40;;;;;;;;;;5073856;28;20395;-65
2021/11/03 04:54:24;;;;;;;3.45;1.30;;;;;;;;;;5074072;28;20070;-65
2021/11/03 04:56:50;;;;;;;3.63;1.42;;;;;;;;;;5073946;28;20017;-65
2021/11/03 04:59:17;;;;;;;9.73;1.50;;;;;;;;;;5073996;28;20029;-65
2021/11/03 05:01:43;;;;;;;12.88;1.90;;;;;;;;;;5074179;28;20549;-65
2021/11/03 05:04:09;;;;;;;7.85;1.73;;;;;;;;;;5073713;28;20029;-65
2021/11/03 05:06:36;;;;;;;11.85;1.77;;;;;;;;;;5072354;28;20023;-65
2021/11/03 05:09:04;;;;;;;6.07;1.50;;;;;;;;;;5073225;28;20405;-65
2021/11/03 05:11:30;;;;;;;9.10;1.38;;;;;;;;;;5073748;28;20032;-66
2021/11/03 05:13:56;;;;;;;7.20;1.33;;;;;;;;;;5073370;28;20024;-65
2021/11/03 05:16:24;;;;;;;6.47;1.55;;;;;;;;;;5073145;28;20036;-65
2021/11/03 05:18:51;;;;;;;15.68;1.50;;;;;;;;;;5073381;28;20109;-65
2021/11/03 05:21:17;;;;;;;7.28;1.40;;;;;;;;;;5072123;28;20025;-65
2021/11/03 05:23:43;;;;;;;15.00;1.42;;;;;;;;;;5073804;28;20031;-65
2021/11/03 05:26:09;;;;;;;12.27;1.80;;;;;;;;;;5073072;28;20027;-66
2021/11/03 05:28:36;;;;;;;5.55;1.70;;;;;;;;;;5072803;28;20028;-65
2021/11/03 05:31:03;;;;;;;5.30;1.65;;;;;;;;;;5072977;28;20499;-66
2021/11/03 05:33:29;;;;;;;9.73;1.75;;;;;;;;;;5072863;28;20529;-66
2021/11/03 05:35:55;;;;;;;7.30;1.30;;;;;;;;;;5071217;28;20036;-67
2021/11/03 05:38:21;;;;;;;5.97;1.40;;;;;;;;;;5072101;28;20100;-66
2021/11/03 05:40:47;;;;;;;17.92;1.55;;;;;;;;;;5073541;28;20064;-65
2021/11/03 05:43:13;;;;;;;7.03;1.42;;;;;;;;;;5073927;28;20479;-67
2021/11/03 05:45:40;;;;;;;10.02;1.67;;;;;;;;;;5073670;28;20028;-65
2021/11/03 05:48:06;;;;;;;6.05;1.13;;;;;;;;;;5072768;28;20040;-64
2021/11/03 05:50:33;;;;;;;10.48;1.20;;;;;;;;;;5071970;28;20037;-65
2021/11/03 05:52:59;;;;;;;6.13;1.30;;;;;;;;;;5071402;28;20052;-65
2021/11/03 05:55:25;;;;;;;5.47;1.50;;;;;;;;;;5070747;28;20052;-65
2021/11/03 05:57:52;;;;;;;3.92;1.67;;;;;;;;;;5069270;28;20024;-66
2021/11/03 06:00:20;;;;;;;8.77;1.67;;;;;;;;;;5072195;28;20024;-66
2021/11/03 06:02:46;;;;;;;4.03;1.52;;;;;;;;;;5072394;28;20044;-65
2021/11/03 06:05:14;;;;;;;6.30;1.45;;;;;;;;;;5072562;28;20021;-66
2021/11/03 06:07:40;;;;;;;5.75;1.55;;;;;;;;;;5071564;28;20450;-66
2021/11/03 06:10:07;;;;;;;3.20;1.65;;;;;;;;;;5071496;28;20148;-65
2021/11/03 06:12:34;;;;;;;3.22;1.63;;;;;;;;;;5071724;28;20045;-66
2021/11/03 06:15:00;;;;;;;6.80;2.00;;;;;;;;;;5070248;28;20194;-66
2021/11/03 06:17:26;;;;;;;5.80;1.90;;;;;;;;;;5070836;28;20032;-66
2021/11/03 06:19:52;;;;;;;8.38;2.00;;;;;;;;;;5072313;28;20039;-65
2021/11/03 06:22:18;;;;;;;7.25;2.60;;;;;;;;;;5070995;28;20173;-66
2021/11/03 06:24:45;;;;;;;16.42;2.03;;;;;;;;;;5071128;28;20099;-66
2021/11/03 06:27:11;;;;;;;12.05;2.38;;;;;;;;;;5071130;28;20025;-66
2021/11/03 06:29:37;;;;;;;8.18;2.15;;;;;;;;;;5071167;28;20025;-65
2021/11/03 06:32:03;;;;;;;17.70;2.28;;;;;;;;;;5069431;28;20020;-67
2021/11/03 06:34:32;;;;;;;24.98;2.30;;;;;;;;;;5071430;28;20101;-67
2021/11/03 06:36:59;;;;;;;49.03;2.60;;;;;;;;;;5071595;28;20028;-64
2021/11/03 06:39:25;;;;;;;48.08;3.17;;;;;;;;;;5071812;28;20046;-67
2021/11/03 06:41:51;;;;;;;54.05;3.42;;;;;;;;;;5071513;28;20017;-65
2021/11/03 06:44:17;;;;;;;35.78;3.00;;;;;;;;;;5070999;28;20017;-66
2021/11/03 06:46:43;;;;;;;28.80;2.40;;;;;;;;;;5070642;28;20036;-66
2021/11/03 06:49:10;;;;;;;37.45;2.78;;;;;;;;;;5071841;28;20129;-64
2021/11/03 06:51:36;;;;;;;21.17;2.75;;;;;;;;;;5075037;28;20051;-65
2021/11/03 06:54:02;;;;;;;26.48;2.70;;;;;;;;;;5074474;28;20403;-65
2021/11/03 06:56:28;;;;;;;23.55;2.47;;;;;;;;;;5075020;28;20044;-65
2021/11/03 06:58:54;;;;;;;25.55;2.63;;;;;;;;;;5075660;28;20024;-66
2021/11/03 07:01:20;;;;;;;12.98;2.40;;;;;;;;;;5075718;28;20052;-66
2021/11/03 07:03:46;;;;;;;14.00;3.17;;;;;;;;;;5075920;28;20031;-64
2021/11/03 07:06:13;;;;;;;13.95;2.25;;;;;;;;;;5075647;28;20102;-65
2021/11/03 07:08:39;;;;;;;12.52;2.47;;;;;;;;;;5075170;28;20044;-65
2021/11/03 07:11:05;;;;;;;16.65;2.50;;;;;;;;;;5075207;28;20033;-64
2021/11/03 07:13:32;;;;;;;9.00;2.30;;;;;;;;;;5075409;28;20040;-64
2021/11/03 07:15:58;;;;;;;12.45;2.50;;;;;;;;;;5075023;28;20099;-65
2021/11/03 07:18:25;;;;;;;4.70;2.22;;;;;;;;;;5074805;28;20625;-64
2021/11/03 07:20:51;;;;;;;11.27;2.80;;;;;;;;;;5075266;28;20013;-65
2021/11/03 07:23:19;;;;;;;12.20;2.33;;;;;;;;;;5074641;28;20048;-64
2021/11/03 07:25:45;;;;;;;7.47;2.30;;;;;;;;;;5074416;28;20021;-65
2021/11/03 07:28:12;;;;;;;7.43;2.20;;;;;;;;;;5074071;28;20038;-65
2021/11/03 07:30:39;;;;;;;7.53;2.33;;;;;;;;;;5073997;28;20032;-64
2021/11/03 07:33:05;;;;;;;6.38;2.13;;;;;;;;;;5074072;28;20063;-64
2021/11/03 07:35:32;;;;;;;3.10;2.00;;;;;;;;;;5074135;28;20094;-65
2021/11/03 07:37:59;;;;;;;4.90;1.90;;;;;;;;;;5073236;28;20064;-66
2021/11/03 07:40:28;;;;;;;4.97;2.10;;;;;;;;;;5062383;28;20396;-65
2021/11/03 07:42:57;;;;;;;5.75;2.17;;;;;;;;;;5063683;28;20543;-64
2021/11/03 07:45:23;;;;;;;8.02;2.00;;;;;;;;;;5066386;28;20060;-66
2021/11/03 07:47:49;;;;;;;6.18;2.20;;;;;;;;;;5069027;28;20636;-65
2021/11/03 07:50:17;;;;;;;5.88;1.92;;;;;;;;;;5073680;28;20102;-65
2021/11/03 07:52:45;;;;;;;3.63;2.05;;;;;;;;;;5072580;28;20013;-64
2021/11/03 07:55:12;;;;;;;2.33;1.90;;;;;;;;;;5073678;28;20020;-64
2021/11/03 07:57:38;;;;;;;4.05;1.90;;;;;;;;;;5072345;28;20044;-65
2021/11/03 08:00:08;;;;;;;3.60;1.73;;;;;;;;;;5073766;28;20071;-65
2021/11/03 08:02:34;;;;;;;3.40;1.95;;;;;;;;;;5071219;28;20043;-64
2021/11/03 08:05:00;;;;;;;3.92;1.77;;;;;;;;;;5073503;28;20025;-64
2021/11/03 08:07:26;;;;;;;10.27;1.83;;;;;;;;;;5073756;28;20028;-64
2021/11/03 08:09:52;;;;;;;5.85;1.70;;;;;;;;;;5073496;28;20058;-65
2021/11/03 08:12:19;;;;;;;2.83;1.70;;;;;;;;;;5073788;28;20028;-65
2021/11/03 08:14:45;;;;;;;1.90;1.50;;;;;;;;;;5072766;28;20031;-63
2021/11/03 08:17:14;;;;;;;2.75;1.85;;;;;;;;;;5073397;28;20483;-64
2021/11/03 08:19:47;;;;;;;5.40;1.70;;;;;;;;;;5073099;28;20115;-64
2021/11/03 08:22:13;;;;;;;3.25;1.90;;;;;;;;;;5073281;28;20082;-65
2021/11/03 08:24:40;;;;;;;1.70;1.60;;;;;;;;;;5076885;28;20051;-64
2021/11/03 08:27:06;;;;;;;2.53;1.73;;;;;;;;;;5082920;28;20107;-62
2021/11/03 08:29:32;;;;;;;2.97;1.63;;;;;;;;;;5082955;28;20046;-64
2021/11/03 08:31:59;;;;;;;1.90;1.70;;;;;;;;;;5076930;28;20036;-65
2021/11/03 08:34:29;;;;;;;5.40;2.10;;;;;;;;;;5081722;28;20031;-66
2021/11/03 08:36:57;;;;;;;2.15;1.95;;;;;;;;;;5082208;28;20108;-65
2021/11/03 08:39:23;;;;;;;3.90;1.90;;;;;;;;;;5083269;28;20024;-63
2021/11/03 08:41:49;;;;;;;3.00;1.90;;;;;;;;;;5084082;28;20123;-64
2021/11/03 08:44:15;;;;;;;2.70;1.85;;;;;;;;;;5072914;28;20064;-64
2021/11/03 08:46:41;;;;;;;4.10;2.33;;;;;;;;;;5074129;28;20064;-65
2021/11/03 08:49:07;;;;;;;4.82;3.05;;;;;;;;;;5067615;28;20058;-65
2021/11/03 08:51:34;;;;;;;7.20;2.45;;;;;;;;;;5072130;28;20040;-65
2021/11/03 08:54:01;;;;;;;4.38;2.63;;;;;;;;;;5066126;28;20021;-66
2021/11/03 08:56:27;;;;;;;2.65;2.33;;;;;;;;;;5052207;28;20025;-67
2021/11/03 08:58:53;;;;;;;3.95;2.17;;;;;;;;;;5092111;28;20066;-67
2021/11/03 09:01:20;;;;;;;3.50;2.40;;;;;;;;;;5093425;28;20063;-67
2021/11/03 09:03:46;;;;;;;5.53;2.65;;;;;;;;;;5093542;28;20096;-68
2021/11/03 09:06:12;;;;;;;3.30;2.90;;;;;;;;;;5085925;28;20094;-68
2021/11/03 09:08:45;;;;;;;3.85;2.60;;;;;;;;;;5073929;28;20079;-67
2021/11/03 09:11:11;;;;;;;9.77;2.78;;;;;;;;;;5074346;28;20059;-68
2021/11/03 09:13:37;;;;;;;9.02;3.20;;;;;;;;;;5091026;28;20487;-67
2021/11/03 09:16:04;;;;;;;6.78;3.15;;;;;;;;;;5077898;28;20043;-67
2021/11/03 09:18:30;;;;;;;4.75;3.28;;;;;;;;;;5072830;28;20025;-68
2021/11/03 09:20:56;;;;;;;7.25;3.20;;;;;;;;;;5073109;28;20108;-70
2021/11/03 09:23:23;;;;;;;10.35;3.40;;;;;;;;;;5073505;28;20020;-68
2021/11/03 09:25:51;;;;;;;6.45;3.22;;;;;;;;;;5073320;28;20391;-67
2021/11/03 09:28:17;;;;;;;6.60;3.00;;;;;;;;;;5072873;28;20036;-67
2021/11/03 09:30:44;;;;;;;6.72;3.38;;;;;;;;;;5073236;28;20036;-67
2021/11/03 09:33:11;;;;;;;7.40;3.63;;;;;;;;;;5083246;28;20036;-65
2021/11/03 09:35:39;;;;;;;7.10;3.40;;;;;;;;;;5086413;28;20020;-68
2021/11/03 09:38:05;;;;;;;4.00;3.22;;;;;;;;;;5073249;28;20360;-67
2021/11/03 09:40:36;;;;;;;8.95;3.63;;;;;;;;;;5073144;28;20028;-68
2021/11/03 09:43:04;;;;;;;4.28;3.35;;;;;;;;;;5073214;28;20020;-68
2021/11/03 09:45:32;;;;;;;3.70;3.40;;;;;;;;;;5072583;28;20371;-68
2021/11/03 09:47:58;;;;;;;5.18;3.90;;;;;;;;;;5071969;28;20056;-68
2021/11/03 09:50:25;;;;;;;4.85;4.05;;;;;;;;;;5064406;28;20076;-68
2021/11/03 09:52:58;;;;;;;9.38;4.05;;;;;;;;;;5061145;28;20024;-67
2021/11/03 09:55:27;;;;;;;5.70;4.20;;;;;;;;;;5086322;28;20036;-68
2021/11/03 09:58:14;;;;;;;4.78;4.20;;;;;;;;;;5090277;28;20032;-68
2021/11/03 10:00:44;;;;;;;4.75;4.30;;;;;;;;;;5077955;28;20120;-67
2021/11/03 10:03:40;;;;;;;12.23;4.50;;;;;;;;;;5072627;28;20038;-67
2021/11/03 10:06:09;;;;;;;15.25;4.85;;;;;;;;;;5055737;28;20041;-68
2021/11/03 10:08:38;;;;;;;18.58;5.60;;;;;;;;;;5072642;28;20079;-68
2021/11/03 10:20:28;;;;;;;7.47;4.43;;;;;;;;;;5130150;27;20395;-66
2021/11/03 10:23:05;;;;;;;11.07;5.00;;;;;;;;;;5113637;28;20038;-67
2021/11/03 10:25:31;;;;;;;17.80;5.32;;;;;;;;;;5127667;27;20382;-67
2021/11/03 10:27:59;;;;;;;8.27;4.85;;;;;;;;;;5129919;27;20708;-68
2021/11/03 10:30:28;;;;;;;16.08;4.93;;;;;;;;;;5129162;28;20030;-67
2021/11/03 10:32:55;;;;;;;12.90;5.05;;;;;;;;;;5130465;27;20020;-67
2021/11/03 10:35:28;;;;;;;10.32;5.30;;;;;;;;;;5129855;27;20378;-68
2021/11/03 10:38:14;;;;;;;7.32;5.65;;;;;;;;;;5126633;27;20031;-68
2021/11/03 10:40:43;;;;;;;10.90;5.72;;;;;;;;;;5117402;28;20437;-68
2021/11/03 10:43:35;;;;;;;7.38;5.45;;;;;;;;;;5118258;27;20498;-68
2021/11/03 10:46:37;;;;;;;10.90;5.78;;;;;;;;;;5145954;27;20031;-68
2021/11/03 10:49:19;;;;;;;8.07;6.03;;;;;;;;;;5074759;28;20502;-68
2021/11/03 10:51:46;;;;;;;6.63;5.75;;;;;;;;;;5163241;27;20069;-67
2021/11/03 10:54:14;;;;;;;8.35;5.95;;;;;;;;;;5148548;27;20032;-68
2021/11/03 10:56:52;;;;;;;8.25;5.70;;;;;;;;;;5137476;27;21336;-68
2021/11/03 10:59:17;;;;;;;9.80;6.00;;;;;;;;;;5160993;27;20476;-68
2021/11/03 11:01:47;;;;;;;6.70;5.68;;;;;;;;;;5152181;27;20034;-68
2021/11/03 11:04:16;;;;;;;9.65;5.75;;;;;;;;;;5131480;27;20078;-67
2021/11/03 11:06:42;;;;;;;6.25;5.65;;;;;;;;;;5131701;27;20389;-67
2021/11/03 11:09:11;;;;;;;6.88;6.18;;;;;;;;;;5150096;27;20474;-67
2021/11/03 11:11:39;;;;;;;10.05;5.70;;;;;;;;;;5150151;27;20018;-67
2021/11/03 11:14:11;;;;;;;8.90;6.00;;;;;;;;;;5150141;27;20025;-68
2021/11/03 11:16:49;;;;;;;7.35;6.05;;;;;;;;;;5152064;27;20103;-70
2021/11/03 11:19:19;;;;;;;7.78;6.28;;;;;;;;;;5149139;27;20142;-67
2021/11/03 11:21:49;;;;;;;7.10;5.40;;;;;;;;;;5148350;27;20019;-68
2021/11/03 11:24:31;;;;;;;7.35;6.43;;;;;;;;;;5130171;27;20031;-68
2021/11/03 11:27:21;;;;;;;8.87;6.27;;;;;;;;;;5149203;27;20117;-68
2021/11/03 11:29:50;;;;;;;10.98;6.53;;;;;;;;;;5145641;27;20497;-68
2021/11/03 11:32:25;;;;;;;9.00;6.50;;;;;;;;;;5135623;27;20023;-68
2021/11/03 11:35:10;;;;;;;10.60;6.07;;;;;;;;;;5135951;27;20023;-67
2021/11/03 11:37:51;;;;;;;10.07;5.97;;;;;;;;;;5136079;27;20027;-67
2021/11/03 11:40:20;;;;;;;7.90;6.10;;;;;;;;;;5117582;27;20035;-67
2021/11/03 11:42:49;;;;;;;8.45;5.95;;;;;;;;;;5136131;27;20081;-68
2021/11/03 11:45:18;;;;;;;7.03;6.32;;;;;;;;;;5135985;27;20072;-68
2021/11/03 11:47:49;;;;;;;10.30;6.28;;;;;;;;;;5135810;27;20023;-67
2021/11/03 11:50:27;;;;;;;9.98;5.85;;;;;;;;;;5154760;27;20023;-68
2021/11/03 11:52:54;;;;;;;10.45;5.95;;;;;;;;;;5156508;27;20126;-68
2021/11/03 11:55:25;;;;;;;8.57;6.47;;;;;;;;;;5156598;27;20023;-67
2021/11/03 11:57:57;;;;;;;7.55;6.70;;;;;;;;;;5156572;27;20106;-68
2021/11/03 12:00:25;;;;;;;10.40;6.47;;;;;;;;;;5156432;27;20023;-68
2021/11/03 12:02:51;;;;;;;6.90;6.10;;;;;;;;;;5146760;27;20065;-67
2021/11/03 12:05:20;;;;;;;8.93;5.97;;;;;;;;;;5119232;27;20027;-68
2021/11/03 12:08:05;;;;;;;15.52;6.47;;;;;;;;;;5135683;27;20076;-68
2021/11/03 12:10:32;;;;;;;9.68;5.93;;;;;;;;;;5124953;27;20039;-67
2021/11/03 12:13:05;;;;;;;6.30;5.70;;;;;;;;;;5138056;27;20061;-69
2021/11/03 12:15:31;;;;;;;;;;;;;;;;;;5135321;27;20027;-68
2021/11/03 12:17:59;;;;;;;5.60;4.93;;;;;;;;;;5134434;27;19965;-68
2021/11/03 12:20:25;;;;;;;12.65;5.65;;;;;;;;;;5117957;27;20041;-68
2021/11/03 12:22:54;;;;;;;5.25;4.65;;;;;;;;;;5122832;27;20033;-68
2021/11/03 12:25:21;;;;;;;7.35;5.15;;;;;;;;;;5116016;27;20166;-68
2021/11/03 12:27:47;;;;;;;9.07;4.88;;;;;;;;;;5134434;27;20387;-69
2021/11/03 12:30:15;;;;;;;13.52;7.22;;;;;;;;;;5134091;27;20027;-66
2021/11/03 12:32:44;;;;;;;19.80;10.00;;;;;;;;;;5131694;27;20075;-68
2021/11/03 12:35:19;;;;;;;29.80;12.73;;;;;;;;;;5134255;27;20141;-70
2021/11/03 12:37:45;;;;;;;34.75;15.63;;;;;;;;;;5113740;27;20015;-69
2021/11/03 12:40:26;;;;;;;42.08;17.52;;;;;;;;;;5110447;27;20385;-70
2021/11/03 12:43:11;;;;;;;46.25;19.30;;;;;;;;;;5133532;27;20076;-69
2021/11/03 12:45:39;;;;;;;50.58;20.48;;;;;;;;;;5107043;27;20046;-69
2021/11/03 12:48:17;;;;;;;57.20;24.35;;;;;;;;;;5132473;27;20030;-70
2021/11/03 12:50:45;;;;;;;60.90;24.17;;;;;;;;;;5125651;27;20019;-70
2021/11/03 12:53:15;;;;;;;68.95;26.35;;;;;;;;;;5117068;27;20479;-70
2021/11/03 12:55:47;;;;;;;65.50;26.20;;;;;;;;;;5131616;27;20023;-70
2021/11/03 12:58:31;;;;;;;69.45;26.95;;;;;;;;;;5133626;27;20023;-70
2021/11/03 13:01:04;;;;;;;63.83;27.35;;;;;;;;;;5133429;27;20396;-70
2021/11/03 13:03:32;;;;;;;70.93;27.33;;;;;;;;;;5133775;27;20047;-70
2021/11/03 13:05:59;;;;;;;62.40;26.75;;;;;;;;;;5133905;27;20057;-70
2021/11/03 13:08:45;;;;;;;64.93;26.58;;;;;;;;;;5115122;27;20123;-70
2021/11/03 13:11:40;;;;;;;69.55;28.35;;;;;;;;;;5129840;27;20034;-70
2021/11/03 13:14:17;;;;;;;70.97;26.85;;;;;;;;;;5120355;27;20039;-70
2021/11/03 13:16:45;;;;;;;54.28;23.48;;;;;;;;;;5132586;27;20099;-70
2021/11/03 13:19:18;;;;;;;54.65;21.63;;;;;;;;;;5133411;27;20134;-70
2021/11/03 13:21:44;;;;;;;50.88;19.90;;;;;;;;;;5131538;27;20465;-70
2021/11/03 13:24:13;;;;;;;50.80;21.27;;;;;;;;;;5133336;27;20030;-70
2021/11/03 13:26:41;;;;;;;45.92;20.23;;;;;;;;;;5112326;27;20018;-70
2021/11/03 13:29:08;;;;;;;41.47;18.58;;;;;;;;;;5132999;27;20084;-70
2021/11/03 13:31:40;;;;;;;43.45;19.13;;;;;;;;;;5133367;27;20080;-70
2021/11/03 13:34:12;;;;;;;39.30;17.10;;;;;;;;;;5133235;27;20030;-69
2021/11/03 13:36:39;;;;;;;39.97;16.45;;;;;;;;;;5112407;27;20021;-69
2021/11/03 13:39:06;;;;;;;32.75;15.10;;;;;;;;;;5133255;27;20113;-69
2021/11/03 13:41:37;;;;;;;41.63;16.13;;;;;;;;;;5133355;27;20019;-70
2021/11/03 13:44:14;;;;;;;33.22;14.73;;;;;;;;;;5132839;27;20034;-68
2021/11/03 13:46:50;;;;;;;31.45;14.20;;;;;;;;;;5130407;27;20030;-68
2021/11/03 13:49:18;;;;;;;30.33;14.45;;;;;;;;;;5091829;27;20021;-68
2021/11/03 13:52:12;;;;;;;30.83;13.15;;;;;;;;;;5132660;27;20501;-68
2021/11/03 13:54:48;;;;;;;25.60;11.98;;;;;;;;;;5123728;27;20110;-69
2021/11/03 13:57:31;;;;;;;27.52;11.85;;;;;;;;;;5132773;27;20102;-68
2021/11/03 13:59:59;;;;;;;27.15;10.68;;;;;;;;;;5132541;27;20402;-69
2021/11/03 14:02:34;;;;;;;25.75;10.43;;;;;;;;;;5132866;27;20523;-68
2021/11/03 14:05:00;;;;;;;23.63;9.55;;;;;;;;;;5108842;27;20024;-68
2021/11/03 14:07:27;;;;;;;19.77;9.50;;;;;;;;;;5132598;27;20095;-68
2021/11/03 14:09:55;;;;;;;21.42;8.40;;;;;;;;;;5132375;27;20023;-69
2021/11/03 14:12:22;;;;;;;17.65;7.82;;;;;;;;;;5130106;27;20020;-68
2021/11/03 14:14:49;;;;;;;16.55;6.82;;;;;;;;;;5110711;28;20406;-68
2021/11/03 14:17:29;;;;;;;14.50;6.45;;;;;;;;;;5128808;28;20019;-68
2021/11/03 14:20:14;;;;;;;14.20;6.53;;;;;;;;;;5131875;28;20401;-68
2021/11/03 14:22:40;;;;;;;14.93;7.00;;;;;;;;;;5127099;28;20026;-68
2021/11/03 14:25:27;;;;;;;15.20;6.35;;;;;;;;;;5132395;28;20102;-68
2021/11/03 14:27:54;;;;;;;13.50;6.25;;;;;;;;;;5128584;28;20020;-68
2021/11/03 14:30:21;;;;;;;13.00;5.90;;;;;;;;;;5129495;28;20027;-68
2021/11/03 14:32:48;;;;;;;11.73;6.20;;;;;;;;;;5132963;28;20019;-68
2021/11/03 14:35:20;;;;;;;14.93;6.10;;;;;;;;;;5132288;28;20027;-68
2021/11/03 14:37:46;;;;;;;11.77;5.55;;;;;;;;;;5132840;28;20022;-68
2021/11/03 14:40:16;;;;;;;13.82;5.07;;;;;;;;;;5129125;28;20039;-68
2021/11/03 14:42:42;;;;;;;14.65;5.70;;;;;;;;;;5105893;28;20023;-67
2021/11/03 14:45:08;;;;;;;13.88;4.90;;;;;;;;;;5132085;28;20076;-68
2021/11/03 14:47:35;;;;;;;11.73;5.00;;;;;;;;;;5113733;28;20023;-67
2021/11/03 14:50:03;;;;;;;11.45;4.82;;;;;;;;;;5064252;28;20471;-67
2021/11/03 14:52:33;;;;;;;11.90;4.50;;;;;;;;;;5076285;27;20038;-68
2021/11/03 14:55:00;;;;;;;12.80;4.97;;;;;;;;;;5111916;28;20768;-68